createdAt,value
2019-05-15T00:01:28.567Z,4.35
2019-05-15T00:03:58.541Z,2.72
2019-05-15T00:06:28.548Z,3.55
2019-05-15T00:08:55.815Z,2.75
2019-05-15T00:11:23.559Z,3.35
2019-05-15T00:13:51.229Z,4.47
2019-05-15T00:16:18.979Z,3.70
2019-05-15T00:18:48.172Z,3.58
2019-05-15T00:21:18.010Z,3.50
2019-05-15T00:23:49.276Z,4.42
2019-05-15T00:26:19.505Z,4.20
2019-05-15T00:28:47.997Z,3.83
2019-05-15T00:31:18.619Z,4.35
2019-05-15T00:33:48.228Z,4.75
2019-05-15T00:36:16.014Z,3.20
2019-05-15T00:38:43.669Z,3.50
2019-05-15T00:41:11.442Z,3.70
2019-05-15T00:43:39.097Z,3.62
2019-05-15T00:46:08.961Z,3.58
2019-05-15T00:48:36.314Z,4.37
2019-05-15T00:51:04.070Z,3.60
2019-05-15T00:53:31.853Z,3.80
2019-05-15T00:55:59.625Z,4.03
2019-05-15T00:58:28.297Z,5.25
2019-05-15T01:00:56.434Z,4.42
2019-05-15T01:03:24.162Z,3.50
2019-05-15T01:05:51.883Z,4.20
2019-05-15T01:08:19.642Z,4.97
2019-05-15T01:10:48.845Z,4.10
2019-05-15T01:13:18.819Z,3.95
2019-05-15T01:15:48.758Z,4.62
2019-05-15T01:18:18.519Z,4.80
2019-05-15T01:20:45.829Z,4.03
2019-05-15T01:23:13.569Z,4.35
2019-05-15T01:25:41.279Z,4.85
2019-05-15T01:28:09.582Z,4.40
2019-05-15T01:30:39.390Z,4.33
2019-05-15T01:33:08.418Z,4.30
2019-05-15T01:35:38.315Z,4.12
2019-05-15T01:38:07.910Z,7.17
2019-05-15T01:40:35.600Z,4.30
2019-05-15T01:43:03.459Z,5.17
2019-05-15T01:45:31.120Z,4.53
2019-05-15T01:47:58.785Z,4.97
2019-05-15T01:50:26.539Z,4.28
2019-05-15T01:52:56.013Z,4.65
2019-05-15T01:55:23.729Z,4.92
2019-05-15T01:57:51.396Z,6.85
2019-05-15T02:00:19.930Z,4.53
2019-05-15T02:02:48.249Z,3.95
2019-05-15T02:05:18.947Z,4.30
2019-05-15T02:07:47.886Z,3.83
2019-05-15T02:10:18.530Z,4.53
2019-05-15T02:12:45.497Z,3.98
2019-05-15T02:15:13.356Z,4.25
2019-05-15T02:17:41.326Z,5.72
2019-05-15T02:20:09.245Z,4.53
2019-05-15T02:22:41.963Z,3.80
2019-05-15T02:25:08.599Z,4.03
2019-05-15T02:27:39.181Z,4.35
2019-05-15T02:30:17.938Z,4.20
2019-05-15T02:32:39.539Z,3.83
2019-05-15T02:35:10.108Z,3.75
2019-05-15T02:37:40.361Z,3.85
2019-05-15T02:40:09.331Z,4.45
2019-05-15T02:42:39.922Z,3.85
2019-05-15T02:45:09.927Z,4.45
2019-05-15T02:47:39.334Z,4.53
2019-05-15T02:50:10.623Z,3.65
2019-05-15T02:52:39.088Z,3.95
2019-05-15T02:55:09.268Z,3.77
2019-05-15T02:57:39.266Z,4.55
2019-05-15T03:00:10.901Z,4.22
2019-05-15T03:02:41.388Z,4.25
2019-05-15T03:05:09.230Z,4.25
2019-05-15T03:07:40.183Z,4.25
2019-05-15T03:10:09.422Z,5.00
2019-05-15T03:12:40.628Z,4.85
2019-05-15T03:15:09.639Z,5.25
2019-05-15T03:17:40.323Z,4.55
2019-05-15T03:20:09.960Z,5.33
2019-05-15T03:22:39.654Z,4.53
2019-05-15T03:25:10.638Z,5.12
2019-05-15T03:27:39.421Z,4.67
2019-05-15T03:30:12.285Z,6.00
2019-05-15T03:32:50.624Z,6.05
2019-05-15T03:35:13.227Z,9.85
2019-05-15T03:37:40.192Z,6.53
2019-05-15T03:40:10.321Z,7.90
2019-05-15T03:42:39.428Z,8.80
2019-05-15T03:45:10.104Z,9.58
2019-05-15T03:47:40.125Z,7.80
2019-05-15T03:50:09.015Z,6.42
2019-05-15T03:52:39.452Z,7.10
2019-05-15T03:55:10.112Z,6.90
2019-05-15T03:57:40.111Z,6.08
2019-05-15T04:00:09.335Z,7.80
2019-05-15T04:02:39.449Z,6.30
2019-05-15T04:05:06.765Z,7.72
2019-05-15T04:07:34.733Z,7.08
2019-05-15T04:10:02.557Z,7.40
2019-05-15T04:12:30.994Z,6.72
2019-05-15T04:14:59.647Z,7.75
2019-05-15T04:17:29.445Z,6.10
2019-05-15T04:19:58.890Z,6.80
2019-05-15T04:22:29.077Z,5.95
2019-05-15T04:24:59.291Z,8.43
2019-05-15T04:27:30.579Z,6.40
2019-05-15T04:29:59.978Z,6.72
2019-05-15T04:32:29.326Z,8.60
2019-05-15T04:34:59.387Z,6.28
2019-05-15T04:37:29.661Z,6.75
2019-05-15T04:39:59.563Z,8.30
2019-05-15T04:42:25.903Z,6.72
2019-05-15T04:44:53.672Z,7.80
2019-05-15T04:47:21.249Z,6.97
2019-05-15T04:49:55.188Z,7.87
2019-05-15T04:52:22.887Z,7.67
2019-05-15T04:54:50.803Z,6.83
2019-05-15T04:57:19.353Z,6.60
2019-05-15T04:59:49.724Z,7.12
2019-05-15T05:02:25.983Z,7.75
2019-05-15T05:04:49.380Z,8.20
2019-05-15T05:07:18.900Z,6.55
2019-05-15T05:09:48.960Z,7.08
2019-05-15T05:12:19.110Z,6.15
2019-05-15T05:14:48.281Z,7.80
2019-05-15T05:17:15.690Z,6.37
2019-05-15T05:19:43.476Z,8.63
2019-05-15T05:22:11.369Z,7.47
2019-05-15T05:24:52.644Z,8.78
2019-05-15T05:27:20.729Z,7.60
2019-05-15T05:29:48.378Z,6.78
2019-05-15T05:32:31.348Z,6.72
2019-05-15T05:34:48.321Z,6.65
2019-05-15T05:37:18.367Z,6.95
2019-05-15T05:39:48.201Z,6.22
2019-05-15T05:42:15.520Z,6.15
2019-05-15T05:44:43.376Z,8.03
2019-05-15T05:47:11.117Z,6.15
2019-05-15T05:49:38.807Z,6.45
2019-05-15T05:52:08.401Z,5.92
2019-05-15T05:54:38.115Z,4.72
2019-05-15T05:57:05.571Z,5.22
2019-05-15T05:59:33.367Z,4.75
2019-05-15T06:02:01.094Z,4.35
2019-05-15T06:04:28.766Z,4.65
2019-05-15T06:07:07.110Z,3.98
2019-05-15T06:09:27.782Z,4.58
2019-05-15T06:11:55.558Z,5.00
2019-05-15T06:14:23.223Z,4.70
2019-05-15T06:16:51.020Z,4.03
2019-05-15T06:19:18.611Z,4.08
2019-05-15T06:21:55.638Z,4.45
2019-05-15T06:24:17.901Z,4.22
2019-05-15T06:26:47.978Z,4.33
2019-05-15T06:29:17.746Z,4.58
2019-05-15T06:31:44.847Z,6.78
2019-05-15T06:34:12.540Z,3.40
2019-05-15T06:36:40.291Z,3.75
2019-05-15T06:39:08.497Z,3.70
2019-05-15T06:41:38.840Z,3.30
2019-05-15T06:44:07.929Z,5.45
2019-05-15T06:46:35.509Z,3.72
2019-05-15T06:49:03.454Z,4.03
2019-05-15T06:51:31.147Z,7.62
2019-05-15T06:53:58.868Z,3.87
2019-05-15T06:56:28.172Z,3.45
2019-05-15T06:58:58.167Z,4.67
2019-05-15T07:01:25.684Z,4.08
2019-05-15T07:03:53.446Z,4.75
2019-05-15T07:06:21.163Z,3.75
2019-05-15T07:08:49.812Z,3.20
2019-05-15T07:11:19.115Z,3.00
2019-05-15T07:13:48.611Z,3.40
2019-05-15T07:16:18.186Z,5.58
2019-05-15T07:18:48.334Z,3.90
2019-05-15T07:21:18.215Z,4.87
2019-05-15T07:23:45.526Z,3.33
2019-05-15T07:26:13.208Z,4.92
2019-05-15T07:28:40.946Z,3.45
2019-05-15T07:31:11.608Z,3.75
2019-05-15T07:33:43.350Z,3.62
2019-05-15T07:36:08.500Z,4.37
2019-05-15T07:38:38.929Z,3.52
2019-05-15T07:41:05.909Z,3.52
2019-05-15T07:43:33.766Z,3.77
2019-05-15T07:46:01.569Z,3.60
2019-05-15T07:48:29.336Z,3.83
2019-05-15T07:50:59.004Z,3.92
2019-05-15T07:53:28.902Z,3.70
2019-05-15T07:56:00.569Z,3.60
2019-05-15T07:58:27.759Z,3.00
2019-05-15T08:00:58.777Z,3.42
2019-05-15T08:03:25.445Z,3.37
2019-05-15T08:05:59.272Z,4.00
2019-05-15T08:08:22.691Z,3.58
2019-05-15T08:10:50.430Z,5.22
2019-05-15T08:13:18.598Z,3.25
2019-05-15T08:15:48.788Z,3.42
2019-05-15T08:18:17.968Z,3.25
2019-05-15T08:20:46.017Z,3.27
2019-05-15T08:23:13.787Z,3.55
2019-05-15T08:25:41.673Z,3.55
2019-05-15T08:28:09.346Z,3.85
2019-05-15T08:30:38.730Z,3.85
2019-05-15T08:33:08.408Z,3.47
2019-05-15T08:35:38.506Z,3.33
2019-05-15T08:38:08.643Z,3.22
2019-05-15T08:40:40.722Z,3.47
2019-05-15T08:43:05.414Z,2.87
2019-05-15T08:45:33.156Z,4.42
2019-05-15T08:48:00.925Z,4.65
2019-05-15T08:50:28.823Z,3.65
2019-05-15T08:52:57.938Z,2.45
2019-05-15T08:55:28.036Z,2.75
2019-05-15T08:57:56.604Z,2.65
2019-05-15T09:00:24.979Z,3.02
2019-05-15T09:02:52.802Z,2.90
2019-05-15T09:05:20.544Z,2.72
2019-05-15T09:07:48.805Z,3.00
2019-05-15T09:10:18.343Z,3.47
2019-05-15T09:12:46.315Z,2.55
2019-05-15T09:15:14.109Z,2.60
2019-05-15T09:17:45.340Z,2.60
2019-05-15T09:20:13.187Z,2.92
2019-05-15T09:22:41.397Z,4.30
2019-05-15T09:25:09.805Z,2.37
2019-05-15T09:27:38.484Z,2.72
2019-05-15T09:30:08.774Z,2.50
2019-05-15T09:32:39.165Z,3.15
2019-05-15T09:35:08.500Z,3.45
2019-05-15T09:37:38.706Z,3.60
2019-05-15T09:40:08.801Z,3.35
2019-05-15T09:42:38.564Z,4.15
2019-05-15T09:45:08.950Z,2.60
2019-05-15T09:47:39.736Z,3.52
2019-05-15T09:50:08.476Z,4.15
2019-05-15T09:52:38.866Z,1.95
2019-05-15T09:55:08.607Z,2.95
2019-05-15T09:57:38.661Z,2.45
2019-05-15T10:00:09.059Z,2.60
2019-05-15T10:02:39.448Z,2.45
2019-05-15T10:05:11.121Z,2.37
2019-05-15T10:07:40.392Z,2.55
2019-05-15T10:10:08.903Z,5.87
2019-05-15T10:12:38.724Z,2.95
2019-05-15T10:15:11.373Z,2.62
2019-05-15T10:17:39.578Z,2.33
2019-05-15T10:20:09.329Z,2.55
2019-05-15T10:22:37.619Z,3.08
2019-05-15T10:25:05.379Z,7.17
2019-05-15T10:27:34.566Z,5.40
2019-05-15T10:30:02.455Z,2.83
2019-05-15T10:32:31.771Z,3.60
2019-05-15T10:34:59.553Z,4.05
2019-05-15T10:37:28.507Z,4.05
2019-05-15T10:39:58.416Z,3.15
2019-05-15T10:42:28.773Z,2.65
2019-05-15T10:44:55.894Z,2.67
2019-05-15T10:47:23.587Z,3.08
2019-05-15T10:49:51.429Z,3.15
2019-05-15T10:52:19.181Z,2.98
2019-05-15T10:54:47.045Z,3.17
2019-05-15T10:57:14.825Z,5.03
2019-05-15T10:59:42.615Z,2.90
2019-05-15T11:02:10.429Z,2.50
2019-05-15T11:04:39.268Z,2.87
2019-05-15T11:07:09.677Z,2.60
2019-05-15T11:09:40.604Z,2.60
2019-05-15T11:12:08.812Z,2.50
2019-05-15T11:14:37.972Z,2.70
2019-05-15T11:17:05.894Z,2.83
2019-05-15T11:19:36.270Z,3.05
2019-05-15T11:22:03.501Z,3.30
2019-05-15T11:24:32.328Z,2.60
2019-05-15T11:27:00.342Z,2.50
2019-05-15T11:29:29.970Z,2.98
2019-05-15T11:32:00.946Z,3.40
2019-05-15T11:34:29.166Z,3.27
2019-05-15T11:36:59.374Z,4.90
2019-05-15T11:39:28.804Z,2.55
2019-05-15T11:41:57.649Z,2.87
2019-05-15T11:44:25.350Z,2.95
2019-05-15T11:46:53.224Z,3.42
2019-05-15T11:49:21.012Z,3.08
2019-05-15T11:51:53.834Z,2.33
2019-05-15T11:54:21.595Z,3.65
2019-05-15T11:56:49.361Z,4.25
2019-05-15T11:59:18.455Z,3.77
2019-05-15T12:01:48.713Z,2.62
2019-05-15T12:04:27.703Z,2.42
2019-05-15T12:06:58.271Z,2.12
2019-05-15T12:09:15.069Z,2.20
2019-05-15T12:11:42.882Z,2.37
2019-05-15T12:14:10.594Z,2.30
2019-05-15T12:16:39.968Z,2.98
2019-05-15T12:19:12.583Z,2.50
2019-05-15T12:21:39.616Z,3.35
2019-05-15T12:24:08.996Z,3.17
2019-05-15T12:26:39.286Z,3.55
2019-05-15T12:29:09.592Z,2.05
2019-05-15T12:31:38.627Z,4.90
2019-05-15T12:34:05.880Z,2.40
2019-05-15T12:36:51.409Z,3.00
2019-05-15T12:39:10.644Z,2.50
2019-05-15T13:01:32.374Z,2.20
2019-05-15T13:04:02.939Z,2.65
2019-05-15T13:06:30.606Z,2.87
2019-05-15T13:08:59.474Z,2.90
2019-05-15T13:11:28.436Z,2.62
2019-05-15T13:13:56.352Z,2.95
2019-05-15T13:16:24.013Z,2.45
2019-05-15T13:18:51.822Z,2.25
2019-05-15T13:21:21.174Z,4.85
2019-05-15T13:23:48.962Z,2.50
2019-05-15T13:26:23.719Z,3.87
2019-05-15T13:28:48.636Z,2.22
2019-05-15T13:31:15.805Z,2.72
2019-05-15T13:33:43.477Z,2.33
2019-05-15T13:36:11.275Z,2.60
2019-05-15T13:38:39.076Z,2.70
2019-05-15T13:41:09.226Z,2.30
2019-05-15T13:43:38.542Z,2.80
2019-05-15T13:46:08.606Z,2.27
2019-05-15T13:48:38.427Z,1.98
2019-05-15T13:51:05.841Z,2.17
2019-05-15T13:53:33.542Z,2.55
2019-05-15T13:56:01.325Z,2.20
2019-05-15T13:58:29.035Z,2.58
2019-05-15T14:00:58.853Z,2.12
2019-05-15T14:03:28.455Z,3.20
2019-05-15T14:05:58.150Z,2.42
2019-05-15T14:08:25.753Z,2.22
2019-05-15T14:10:53.563Z,2.67
2019-05-15T14:13:21.868Z,3.92
2019-05-15T14:15:49.703Z,2.95
2019-05-15T14:18:20.355Z,2.22
2019-05-15T14:20:49.070Z,4.37
2019-05-15T14:23:18.565Z,2.55
2019-05-15T14:25:48.262Z,2.80
2019-05-15T14:28:18.509Z,1.98
2019-05-15T14:30:45.929Z,1.98
2019-05-15T14:33:13.695Z,2.35
2019-05-15T14:35:41.586Z,4.58
2019-05-15T14:38:10.360Z,2.87
2019-05-15T14:40:38.387Z,4.30
2019-05-15T14:43:08.704Z,2.50
2019-05-15T14:45:35.802Z,2.10
2019-05-15T14:48:03.753Z,2.05
2019-05-15T14:50:31.566Z,2.30
2019-05-15T14:52:59.343Z,1.95
2019-05-15T14:55:32.521Z,2.40
2019-05-15T14:57:58.741Z,2.35
2019-05-15T15:00:30.223Z,2.50
2019-05-15T15:02:58.769Z,2.25
2019-05-15T15:05:30.595Z,2.25
2019-05-15T15:07:58.695Z,2.92
2019-05-15T15:10:28.909Z,3.35
2019-05-15T15:12:58.565Z,2.37
2019-05-15T15:15:28.531Z,2.65
2019-05-15T15:17:58.148Z,3.05
2019-05-15T15:20:25.680Z,2.35
2019-05-15T15:22:53.437Z,2.52
2019-05-15T15:25:21.612Z,2.62
2019-05-15T15:27:49.394Z,2.45
2019-05-15T15:30:18.981Z,2.90
2019-05-15T15:32:48.981Z,2.33
2019-05-15T15:35:16.585Z,2.10
2019-05-15T15:37:44.387Z,2.98
2019-05-15T15:40:12.382Z,2.60
2019-05-15T15:42:40.435Z,2.40
2019-05-15T15:45:09.360Z,1.92
2019-05-15T15:47:38.940Z,3.75
2019-05-15T15:50:09.566Z,2.35
2019-05-15T15:52:38.437Z,2.27
2019-05-15T15:55:08.971Z,2.92
2019-05-15T15:57:39.257Z,2.50
2019-05-15T16:00:08.652Z,2.30
2019-05-15T16:02:40.627Z,1.80
2019-05-15T16:05:08.155Z,2.92
2019-05-15T16:07:38.018Z,2.27
2019-05-15T16:10:08.131Z,2.17
2019-05-15T16:12:38.458Z,2.20
2019-05-15T16:15:08.876Z,2.10
2019-05-15T16:17:38.610Z,1.95
2019-05-15T16:20:07.349Z,4.58
2019-05-15T16:22:37.916Z,2.60
2019-05-15T16:25:05.808Z,2.27
2019-05-15T16:27:34.226Z,2.15
2019-05-15T16:30:02.048Z,2.87
2019-05-15T16:32:30.946Z,2.50
2019-05-15T16:34:58.825Z,2.90
2019-05-15T16:37:26.926Z,4.70
2019-05-15T16:39:57.134Z,2.05
2019-05-15T16:42:24.320Z,2.02
2019-05-15T16:44:52.036Z,3.10
2019-05-15T16:47:19.827Z,3.55
2019-05-15T16:49:48.565Z,2.60
2019-05-15T16:52:18.186Z,4.37
2019-05-15T16:54:48.781Z,2.20
2019-05-15T16:57:18.335Z,3.12
2019-05-15T16:59:47.873Z,3.80
2019-05-15T17:02:15.147Z,3.27
2019-05-15T17:04:43.009Z,2.80
2019-05-15T17:07:10.938Z,3.15
2019-05-15T17:09:38.808Z,2.70
2019-05-15T17:12:08.707Z,2.77
2019-05-15T17:14:38.795Z,2.22
2019-05-15T17:17:07.951Z,2.00
2019-05-15T17:19:35.462Z,2.70
2019-05-15T17:22:03.329Z,2.52
2019-05-15T17:24:31.184Z,2.30
2019-05-15T17:26:59.796Z,2.80
2019-05-15T17:29:29.199Z,2.95
2019-05-15T17:31:57.177Z,2.50
2019-05-15T17:34:25.206Z,4.05
2019-05-15T17:36:53.102Z,2.60
2019-05-15T17:39:33.679Z,3.77
2019-05-15T17:41:50.806Z,2.90
2019-05-15T17:44:18.964Z,2.70
2019-05-15T17:46:48.942Z,2.72
2019-05-15T17:49:17.031Z,3.30
2019-05-15T17:51:44.862Z,3.70
2019-05-15T17:54:12.731Z,3.65
2019-05-15T17:56:40.566Z,2.77
2019-05-15T17:59:08.744Z,2.70
2019-05-15T18:01:38.328Z,2.40
2019-05-15T18:04:08.403Z,2.90
2019-05-15T18:06:36.114Z,2.20
2019-05-15T18:09:05.479Z,2.12
2019-05-15T18:11:33.380Z,1.50
2019-05-15T18:14:01.291Z,1.90
2019-05-15T18:16:29.228Z,1.70
2019-05-15T18:18:58.649Z,1.60
2019-05-15T18:21:28.925Z,1.65
2019-05-15T18:23:58.650Z,1.40
2019-05-15T18:26:26.655Z,1.40
2019-05-15T18:28:54.609Z,2.05
2019-05-15T18:31:22.378Z,1.50
2019-05-15T18:33:53.760Z,1.80
2019-05-15T18:36:19.973Z,1.62
2019-05-15T18:38:48.349Z,2.95
2019-05-15T18:41:17.963Z,1.70
2019-05-15T18:43:45.827Z,1.47
2019-05-15T18:46:13.644Z,1.50
2019-05-15T18:48:41.443Z,2.65
2019-05-15T18:51:09.344Z,1.75
2019-05-15T18:53:38.868Z,2.22
2019-05-15T18:56:08.792Z,2.75
2019-05-15T18:58:38.104Z,1.62
2019-05-15T19:01:09.060Z,1.60
2019-05-15T19:03:38.359Z,2.22
2019-05-15T19:06:05.663Z,1.82
2019-05-15T19:08:33.476Z,1.60
2019-05-15T19:11:01.513Z,2.80
2019-05-15T19:13:29.383Z,3.02
2019-05-15T19:15:58.012Z,3.37
2019-05-15T19:18:27.911Z,3.45
2019-05-15T19:20:58.405Z,2.00
2019-05-15T19:23:25.775Z,1.82
2019-05-15T19:25:53.694Z,1.80
2019-05-15T19:28:21.815Z,1.70
2019-05-15T19:30:49.730Z,1.95
2019-05-15T19:33:22.550Z,1.80
2019-05-15T19:35:47.678Z,2.95
2019-05-15T19:38:15.730Z,2.25
2019-05-15T19:40:44.070Z,4.53
2019-05-15T19:43:11.792Z,1.70
2019-05-15T19:45:39.709Z,2.15
2019-05-15T19:48:08.933Z,1.95
2019-05-15T19:50:37.007Z,2.05
2019-05-15T19:53:04.833Z,1.85
2019-05-15T19:55:32.743Z,2.35
2019-05-15T19:58:00.519Z,2.05
2019-05-15T20:00:28.729Z,2.75
2019-05-15T20:02:58.054Z,1.90
2019-05-15T20:05:28.697Z,1.80
2019-05-15T20:07:58.549Z,1.98
2019-05-15T20:10:26.011Z,2.20
2019-05-15T20:12:53.908Z,1.60
2019-05-15T20:15:21.818Z,2.58
2019-05-15T20:17:49.708Z,2.52
2019-05-15T20:20:18.787Z,2.02
2019-05-15T20:22:48.079Z,2.92
2019-05-15T20:25:18.302Z,2.08
2019-05-15T20:27:47.979Z,2.33
2019-05-15T20:30:17.866Z,2.42
2019-05-15T20:32:47.745Z,2.20
2019-05-15T20:35:15.147Z,2.10
2019-05-15T20:37:42.964Z,2.00
2019-05-15T20:40:12.990Z,2.80
2019-05-15T20:42:41.341Z,2.15
2019-05-15T20:45:12.214Z,2.25
2019-05-15T20:47:39.357Z,2.20
2019-05-15T20:50:08.592Z,2.20
2019-05-15T20:52:39.518Z,2.47
2019-05-15T20:55:07.989Z,2.52
2019-05-15T20:57:40.018Z,2.75
2019-05-15T21:00:08.462Z,2.05
2019-05-15T21:02:38.165Z,2.12
2019-05-15T21:05:08.681Z,2.85
2019-05-15T21:07:39.970Z,2.10
2019-05-15T21:10:08.299Z,2.47
2019-05-15T21:12:36.203Z,2.72
2019-05-15T21:15:05.159Z,2.27
2019-05-15T21:17:33.405Z,4.42
2019-05-15T21:20:01.576Z,2.10
2019-05-15T21:22:30.792Z,2.90
2019-05-15T21:24:58.530Z,2.20
2019-05-15T21:27:31.860Z,2.47
2019-05-15T21:29:56.153Z,2.42
2019-05-15T21:32:28.635Z,2.60
2019-05-15T21:34:58.393Z,2.58
2019-05-15T21:37:27.520Z,3.25
2019-05-15T21:39:55.888Z,2.00
2019-05-15T21:42:23.725Z,2.87
2019-05-15T21:44:51.568Z,2.60
2019-05-15T21:47:19.372Z,2.40
2019-05-15T21:49:48.200Z,5.60
2019-05-15T21:52:18.484Z,2.08
2019-05-15T21:54:47.468Z,2.70
2019-05-15T21:57:32.286Z,2.55
2019-05-15T21:59:45.055Z,2.37
2019-05-15T22:02:13.268Z,2.52
2019-05-15T22:04:51.219Z,3.00
2019-05-15T22:07:10.873Z,2.58
2019-05-15T22:09:38.726Z,2.60
2019-05-15T22:12:06.808Z,2.42
2019-05-15T22:14:34.801Z,2.90
2019-05-15T22:17:02.822Z,2.65
2019-05-15T22:19:30.622Z,2.50
2019-05-15T22:21:58.696Z,3.00
2019-05-15T22:24:28.484Z,3.02
2019-05-15T22:26:58.538Z,2.90
2019-05-15T22:29:25.785Z,2.83
2019-05-15T22:31:53.620Z,3.20
2019-05-15T22:34:21.351Z,2.67
2019-05-15T22:36:50.987Z,2.52
2019-05-15T22:39:18.937Z,2.80
2019-05-15T22:41:47.918Z,3.12
2019-05-15T22:44:16.139Z,2.70
2019-05-15T22:46:43.895Z,3.27
2019-05-15T22:49:11.677Z,3.27
2019-05-15T22:51:39.475Z,4.42
2019-05-15T22:54:08.613Z,2.83
2019-05-15T22:56:37.850Z,6.10
2019-05-15T22:59:05.958Z,2.95
2019-05-15T23:01:35.714Z,3.83
2019-05-15T23:04:10.508Z,3.45
2019-05-15T23:06:38.848Z,3.45
2019-05-15T23:09:06.789Z,3.27
2019-05-15T23:11:34.682Z,3.52
2019-05-15T23:14:02.425Z,3.30
2019-05-15T23:16:31.286Z,3.37
2019-05-15T23:18:59.692Z,3.30
2019-05-15T23:21:28.773Z,2.87
2019-05-15T23:23:56.911Z,3.77
2019-05-15T23:26:24.793Z,5.33
2019-05-15T23:28:52.492Z,4.25
2019-05-15T23:31:20.238Z,6.00
2019-05-15T23:33:48.218Z,6.97
2019-05-15T23:36:18.080Z,4.00
2019-05-15T23:38:47.820Z,3.60
2019-05-15T23:41:15.500Z,4.15
2019-05-15T23:43:48.286Z,4.55
2019-05-15T23:46:18.207Z,3.35
2019-05-15T23:48:45.631Z,3.75
2019-05-15T23:51:13.306Z,3.40
2019-05-15T23:53:41.139Z,3.08
2019-05-15T23:56:09.321Z,3.30
2019-05-15T23:58:38.074Z,4.22
